sensor_id;sensor_type;location;lat;lon;timestamp;temperature;humidity
6843;DHT22;3460;52.028;8.916;2024-03-06T00:00:01;5.30;99.90
6843;DHT22;3460;52.028;8.916;2024-03-06T00:02:30;5.30;99.90
6843;DHT22;3460;52.028;8.916;2024-03-06T00:04:57;5.30;99.90
6843;DHT22;3460;52.028;8.916;2024-03-06T00:07:24;5.30;99.90
6843;DHT22;3460;52.028;8.916;2024-03-06T00:09:51;5.20;99.90
6843;DHT22;3460;52.028;8.916;2024-03-06T00:12:19;5.30;99.90
6843;DHT22;3460;52.028;8.916;2024-03-06T00:14:46;5.30;99.90
6843;DHT22;3460;52.028;8.916;2024-03-06T00:17:13;5.30;99.90
6843;DHT22;3460;52.028;8.916;2024-03-06T00:19:41;5.30;99.90
6843;DHT22;3460;52.028;8.916;2024-03-06T00:22:09;5.30;99.90
6843;DHT22;3460;52.028;8.916;2024-03-06T00:24:36;5.30;99.90
6843;DHT22;3460;52.028;8.916;2024-03-06T00:27:03;5.30;99.90
6843;DHT22;3460;52.028;8.916;2024-03-06T00:29:31;5.30;99.90
6843;DHT22;3460;52.028;8.916;2024-03-06T00:31:58;5.30;99.90
6843;DHT22;3460;52.028;8.916;2024-03-06T00:34:24;5.20;99.90
6843;DHT22;3460;52.028;8.916;2024-03-06T00:36:56;5.20;99.90
6843;DHT22;3460;52.028;8.916;2024-03-06T00:39:23;5.20;99.90
6843;DHT22;3460;52.028;8.916;2024-03-06T00:41:50;5.20;99.90
6843;DHT22;3460;52.028;8.916;2024-03-06T00:44:16;5.10;99.90
6843;DHT22;3460;52.028;8.916;2024-03-06T00:46:43;5.10;99.90
6843;DHT22;3460;52.028;8.916;2024-03-06T00:49:10;5.10;99.90
6843;DHT22;3460;52.028;8.916;2024-03-06T00:51:37;5.20;99.90
6843;DHT22;3460;52.028;8.916;2024-03-06T00:54:05;5.20;99.90
6843;DHT22;3460;52.028;8.916;2024-03-06T00:56:32;5.20;99.90
6843;DHT22;3460;52.028;8.916;2024-03-06T00:58:59;5.20;99.90
6843;DHT22;3460;52.028;8.916;2024-03-06T01:01:28;5.20;99.90
6843;DHT22;3460;52.028;8.916;2024-03-06T01:03:55;5.20;99.90
6843;DHT22;3460;52.028;8.916;2024-03-06T01:06:22;5.20;99.90
6843;DHT22;3460;52.028;8.916;2024-03-06T01:08:49;5.20;99.90
6843;DHT22;3460;52.028;8.916;2024-03-06T01:11:17;5.20;99.90
6843;DHT22;3460;52.028;8.916;2024-03-06T01:13:44;5.20;99.90
6843;DHT22;3460;52.028;8.916;2024-03-06T01:16:10;5.20;99.90
6843;DHT22;3460;52.028;8.916;2024-03-06T01:18:37;5.20;99.90
6843;DHT22;3460;52.028;8.916;2024-03-06T01:21:04;5.30;99.90
6843;DHT22;3460;52.028;8.916;2024-03-06T01:23:31;5.30;99.90
6843;DHT22;3460;52.028;8.916;2024-03-06T01:25:58;5.30;99.90
6843;DHT22;3460;52.028;8.916;2024-03-06T01:28:26;5.30;99.90
6843;DHT22;3460;52.028;8.916;2024-03-06T01:30:53;5.30;99.90
6843;DHT22;3460;52.028;8.916;2024-03-06T01:33:20;5.30;99.90
6843;DHT22;3460;52.028;8.916;2024-03-06T01:35:47;5.40;99.90
6843;DHT22;3460;52.028;8.916;2024-03-06T01:38:14;5.40;99.90
6843;DHT22;3460;52.028;8.916;2024-03-06T01:40:43;5.40;99.90
6843;DHT22;3460;52.028;8.916;2024-03-06T01:43:20;5.50;99.90
6843;DHT22;3460;52.028;8.916;2024-03-06T01:45:49;5.50;99.90
6843;DHT22;3460;52.028;8.916;2024-03-06T01:48:17;5.50;99.90
6843;DHT22;3460;52.028;8.916;2024-03-06T01:50:44;5.40;99.90
6843;DHT22;3460;52.028;8.916;2024-03-06T01:53:12;5.50;99.90
6843;DHT22;3460;52.028;8.916;2024-03-06T01:55:39;5.50;99.90
6843;DHT22;3460;52.028;8.916;2024-03-06T01:58:07;5.40;99.90
6843;DHT22;3460;52.028;8.916;2024-03-06T02:00:34;5.40;99.90
6843;DHT22;3460;52.028;8.916;2024-03-06T02:03:03;5.40;99.90
6843;DHT22;3460;52.028;8.916;2024-03-06T02:05:30;5.40;99.90
6843;DHT22;3460;52.028;8.916;2024-03-06T02:07:58;5.40;99.90
6843;DHT22;3460;52.028;8.916;2024-03-06T02:10:26;5.40;99.90
6843;DHT22;3460;52.028;8.916;2024-03-06T02:12:53;5.40;99.90
6843;DHT22;3460;52.028;8.916;2024-03-06T02:15:22;5.40;99.90
6843;DHT22;3460;52.028;8.916;2024-03-06T02:17:49;5.40;99.90
6843;DHT22;3460;52.028;8.916;2024-03-06T02:20:24;5.40;99.90
6843;DHT22;3460;52.028;8.916;2024-03-06T02:22:51;5.40;99.90
6843;DHT22;3460;52.028;8.916;2024-03-06T02:25:18;5.40;99.90
6843;DHT22;3460;52.028;8.916;2024-03-06T02:27:45;5.50;99.90
6843;DHT22;3460;52.028;8.916;2024-03-06T02:30:13;5.50;99.90
6843;DHT22;3460;52.028;8.916;2024-03-06T02:32:40;5.50;99.90
6843;DHT22;3460;52.028;8.916;2024-03-06T02:35:09;5.50;99.90
6843;DHT22;3460;52.028;8.916;2024-03-06T02:37:37;5.50;99.90
6843;DHT22;3460;52.028;8.916;2024-03-06T02:40:05;5.50;99.90
6843;DHT22;3460;52.028;8.916;2024-03-06T02:42:35;5.50;99.90
6843;DHT22;3460;52.028;8.916;2024-03-06T02:45:03;5.50;99.90
6843;DHT22;3460;52.028;8.916;2024-03-06T02:47:30;5.50;99.90
6843;DHT22;3460;52.028;8.916;2024-03-06T02:49:57;5.50;99.90
6843;DHT22;3460;52.028;8.916;2024-03-06T02:52:23;5.40;99.90
6843;DHT22;3460;52.028;8.916;2024-03-06T02:54:51;5.30;99.90
6843;DHT22;3460;52.028;8.916;2024-03-06T02:57:18;5.30;99.90
6843;DHT22;3460;52.028;8.916;2024-03-06T02:59:45;5.20;99.90
6843;DHT22;3460;52.028;8.916;2024-03-06T03:02:12;5.20;99.90
6843;DHT22;3460;52.028;8.916;2024-03-06T03:04:38;5.20;99.90
6843;DHT22;3460;52.028;8.916;2024-03-06T03:07:08;5.10;99.90
6843;DHT22;3460;52.028;8.916;2024-03-06T03:09:35;5.10;99.90
6843;DHT22;3460;52.028;8.916;2024-03-06T03:12:05;5.10;99.90
6843;DHT22;3460;52.028;8.916;2024-03-06T03:14:32;5.10;99.90
6843;DHT22;3460;52.028;8.916;2024-03-06T03:16:59;5.10;99.90
6843;DHT22;3460;52.028;8.916;2024-03-06T03:19:26;5.10;99.90
6843;DHT22;3460;52.028;8.916;2024-03-06T03:21:53;5.10;99.90
6843;DHT22;3460;52.028;8.916;2024-03-06T03:24:20;5.10;99.90
6843;DHT22;3460;52.028;8.916;2024-03-06T03:26:47;5.10;99.90
6843;DHT22;3460;52.028;8.916;2024-03-06T03:29:15;5.10;99.90
6843;DHT22;3460;52.028;8.916;2024-03-06T03:31:42;5.10;99.90
6843;DHT22;3460;52.028;8.916;2024-03-06T03:34:08;5.10;99.90
6843;DHT22;3460;52.028;8.916;2024-03-06T03:36:40;5.10;99.90
6843;DHT22;3460;52.028;8.916;2024-03-06T03:39:07;5.00;99.90
6843;DHT22;3460;52.028;8.916;2024-03-06T03:41:43;5.00;99.90
6843;DHT22;3460;52.028;8.916;2024-03-06T03:44:11;5.00;99.90
6843;DHT22;3460;52.028;8.916;2024-03-06T03:46:39;5.00;99.90
6843;DHT22;3460;52.028;8.916;2024-03-06T03:49:06;5.10;99.90
6843;DHT22;3460;52.028;8.916;2024-03-06T03:51:34;5.10;99.90
6843;DHT22;3460;52.028;8.916;2024-03-06T03:54:01;5.10;99.90
6843;DHT22;3460;52.028;8.916;2024-03-06T03:56:27;5.00;99.90
6843;DHT22;3460;52.028;8.916;2024-03-06T03:58:56;5.00;99.90
6843;DHT22;3460;52.028;8.916;2024-03-06T04:01:22;4.90;99.90
6843;DHT22;3460;52.028;8.916;2024-03-06T04:03:51;4.90;99.90
6843;DHT22;3460;52.028;8.916;2024-03-06T04:06:18;4.90;99.90
6843;DHT22;3460;52.028;8.916;2024-03-06T04:08:45;4.90;99.90
6843;DHT22;3460;52.028;8.916;2024-03-06T04:11:12;4.90;99.90
6843;DHT22;3460;52.028;8.916;2024-03-06T04:13:39;5.00;99.90
6843;DHT22;3460;52.028;8.916;2024-03-06T04:16:06;5.00;99.90
6843;DHT22;3460;52.028;8.916;2024-03-06T04:18:32;5.00;99.90
6843;DHT22;3460;52.028;8.916;2024-03-06T04:21:03;5.00;99.90
6843;DHT22;3460;52.028;8.916;2024-03-06T04:23:30;5.00;99.90
6843;DHT22;3460;52.028;8.916;2024-03-06T04:25:58;5.00;99.90
6843;DHT22;3460;52.028;8.916;2024-03-06T04:28:25;5.00;99.90
6843;DHT22;3460;52.028;8.916;2024-03-06T04:30:51;5.10;99.90
6843;DHT22;3460;52.028;8.916;2024-03-06T04:33:18;5.10;99.90
6843;DHT22;3460;52.028;8.916;2024-03-06T04:35:45;5.10;99.90
6843;DHT22;3460;52.028;8.916;2024-03-06T04:38:14;5.10;99.90
6843;DHT22;3460;52.028;8.916;2024-03-06T04:40:41;5.10;99.90
6843;DHT22;3460;52.028;8.916;2024-03-06T04:43:07;5.10;99.90
6843;DHT22;3460;52.028;8.916;2024-03-06T04:45:33;5.10;99.90
6843;DHT22;3460;52.028;8.916;2024-03-06T04:48:00;5.10;99.90
6843;DHT22;3460;52.028;8.916;2024-03-06T04:50:27;5.10;99.90
6843;DHT22;3460;52.028;8.916;2024-03-06T04:52:54;5.20;99.90
6843;DHT22;3460;52.028;8.916;2024-03-06T04:55:22;5.20;99.90
6843;DHT22;3460;52.028;8.916;2024-03-06T04:57:52;5.20;99.90
6843;DHT22;3460;52.028;8.916;2024-03-06T05:00:19;5.10;99.90
6843;DHT22;3460;52.028;8.916;2024-03-06T05:02:46;5.20;99.90
6843;DHT22;3460;52.028;8.916;2024-03-06T05:05:18;5.10;99.90
6843;DHT22;3460;52.028;8.916;2024-03-06T05:07:44;5.10;99.90
6843;DHT22;3460;52.028;8.916;2024-03-06T05:10:11;5.10;99.90
6843;DHT22;3460;52.028;8.916;2024-03-06T05:12:39;5.10;99.90
6843;DHT22;3460;52.028;8.916;2024-03-06T05:15:06;5.20;99.90
6843;DHT22;3460;52.028;8.916;2024-03-06T05:17:34;5.20;99.90
6843;DHT22;3460;52.028;8.916;2024-03-06T05:20:01;5.20;99.90
6843;DHT22;3460;52.028;8.916;2024-03-06T05:22:29;5.20;99.90
6843;DHT22;3460;52.028;8.916;2024-03-06T05:24:56;5.30;99.90
6843;DHT22;3460;52.028;8.916;2024-03-06T05:27:23;5.30;99.90
6843;DHT22;3460;52.028;8.916;2024-03-06T05:29:52;5.30;99.90
6843;DHT22;3460;52.028;8.916;2024-03-06T05:32:19;5.30;99.90
6843;DHT22;3460;52.028;8.916;2024-03-06T05:34:46;5.30;99.90
6843;DHT22;3460;52.028;8.916;2024-03-06T05:37:12;5.30;99.90
6843;DHT22;3460;52.028;8.916;2024-03-06T05:39:39;5.30;99.90
6843;DHT22;3460;52.028;8.916;2024-03-06T05:42:08;5.30;99.90
6843;DHT22;3460;52.028;8.916;2024-03-06T05:44:34;5.30;99.90
6843;DHT22;3460;52.028;8.916;2024-03-06T05:47:03;5.30;99.90
6843;DHT22;3460;52.028;8.916;2024-03-06T05:49:29;5.30;99.90
6843;DHT22;3460;52.028;8.916;2024-03-06T05:51:58;5.30;99.90
6843;DHT22;3460;52.028;8.916;2024-03-06T05:54:24;5.30;99.90
6843;DHT22;3460;52.028;8.916;2024-03-06T05:56:53;5.40;99.90
6843;DHT22;3460;52.028;8.916;2024-03-06T05:59:20;5.30;99.90
6843;DHT22;3460;52.028;8.916;2024-03-06T06:01:48;5.30;99.90
6843;DHT22;3460;52.028;8.916;2024-03-06T06:04:16;5.30;99.90
6843;DHT22;3460;52.028;8.916;2024-03-06T06:06:43;5.40;99.90
6843;DHT22;3460;52.028;8.916;2024-03-06T06:09:09;5.30;99.90
6843;DHT22;3460;52.028;8.916;2024-03-06T06:11:41;5.40;99.90
6843;DHT22;3460;52.028;8.916;2024-03-06T06:14:08;5.40;99.90
6843;DHT22;3460;52.028;8.916;2024-03-06T06:16:36;5.40;99.90
6843;DHT22;3460;52.028;8.916;2024-03-06T06:19:02;5.40;99.90
6843;DHT22;3460;52.028;8.916;2024-03-06T06:21:31;5.40;99.90
6843;DHT22;3460;52.028;8.916;2024-03-06T06:23:57;5.40;99.90
6843;DHT22;3460;52.028;8.916;2024-03-06T06:26:24;5.50;99.90
6843;DHT22;3460;52.028;8.916;2024-03-06T06:28:51;5.60;99.90
6843;DHT22;3460;52.028;8.916;2024-03-06T06:31:18;5.60;99.90
6843;DHT22;3460;52.028;8.916;2024-03-06T06:33:45;5.60;99.90
6843;DHT22;3460;52.028;8.916;2024-03-06T06:36:13;5.60;99.90
6843;DHT22;3460;52.028;8.916;2024-03-06T06:38:41;5.60;99.90
6843;DHT22;3460;52.028;8.916;2024-03-06T06:41:07;5.60;99.90
6843;DHT22;3460;52.028;8.916;2024-03-06T06:43:34;5.50;99.90
6843;DHT22;3460;52.028;8.916;2024-03-06T06:46:01;5.50;99.90
6843;DHT22;3460;52.028;8.916;2024-03-06T06:48:30;5.40;99.90
6843;DHT22;3460;52.028;8.916;2024-03-06T06:50:58;5.50;99.90
6843;DHT22;3460;52.028;8.916;2024-03-06T06:53:26;5.40;99.90
6843;DHT22;3460;52.028;8.916;2024-03-06T06:55:55;5.40;99.90
6843;DHT22;3460;52.028;8.916;2024-03-06T06:58:21;5.40;99.90
6843;DHT22;3460;52.028;8.916;2024-03-06T07:00:48;5.40;99.90
6843;DHT22;3460;52.028;8.916;2024-03-06T07:03:16;5.40;99.90
6843;DHT22;3460;52.028;8.916;2024-03-06T07:05:43;5.40;99.90
6843;DHT22;3460;52.028;8.916;2024-03-06T07:08:10;5.40;99.90
6843;DHT22;3460;52.028;8.916;2024-03-06T07:10:37;5.50;99.90
6843;DHT22;3460;52.028;8.916;2024-03-06T07:13:05;5.50;99.90
6843;DHT22;3460;52.028;8.916;2024-03-06T07:15:32;5.50;99.90
6843;DHT22;3460;52.028;8.916;2024-03-06T07:17:59;5.50;99.90
6843;DHT22;3460;52.028;8.916;2024-03-06T07:20:26;5.60;99.90
6843;DHT22;3460;52.028;8.916;2024-03-06T07:22:52;5.60;99.90
6843;DHT22;3460;52.028;8.916;2024-03-06T07:25:19;5.60;99.90
6843;DHT22;3460;52.028;8.916;2024-03-06T07:27:46;5.70;99.90
6843;DHT22;3460;52.028;8.916;2024-03-06T07:30:15;5.80;99.90
6843;DHT22;3460;52.028;8.916;2024-03-06T07:32:42;5.80;99.90
6843;DHT22;3460;52.028;8.916;2024-03-06T07:35:08;5.90;99.90
6843;DHT22;3460;52.028;8.916;2024-03-06T07:37:35;5.90;99.90
6843;DHT22;3460;52.028;8.916;2024-03-06T07:40:02;5.90;99.90
6843;DHT22;3460;52.028;8.916;2024-03-06T07:42:30;6.00;99.90
6843;DHT22;3460;52.028;8.916;2024-03-06T07:44:57;5.90;99.90
6843;DHT22;3460;52.028;8.916;2024-03-06T07:47:25;5.90;99.90
6843;DHT22;3460;52.028;8.916;2024-03-06T07:49:52;5.90;99.90
6843;DHT22;3460;52.028;8.916;2024-03-06T07:52:19;6.00;99.90
6843;DHT22;3460;52.028;8.916;2024-03-06T07:54:46;6.10;99.90
6843;DHT22;3460;52.028;8.916;2024-03-06T07:57:13;6.10;99.90
6843;DHT22;3460;52.028;8.916;2024-03-06T07:59:40;6.10;99.90
6843;DHT22;3460;52.028;8.916;2024-03-06T08:02:07;6.10;99.90
6843;DHT22;3460;52.028;8.916;2024-03-06T08:04:35;6.00;99.90
6843;DHT22;3460;52.028;8.916;2024-03-06T08:07:02;5.90;99.90
6843;DHT22;3460;52.028;8.916;2024-03-06T08:09:29;5.90;99.90
6843;DHT22;3460;52.028;8.916;2024-03-06T08:11:56;5.90;99.90
6843;DHT22;3460;52.028;8.916;2024-03-06T08:14:22;5.90;99.90
6843;DHT22;3460;52.028;8.916;2024-03-06T08:16:49;6.00;99.90
6843;DHT22;3460;52.028;8.916;2024-03-06T08:19:16;6.00;99.90
6843;DHT22;3460;52.028;8.916;2024-03-06T08:21:44;6.10;99.90
6843;DHT22;3460;52.028;8.916;2024-03-06T08:24:11;6.20;99.90
6843;DHT22;3460;52.028;8.916;2024-03-06T08:26:38;6.20;99.90
6843;DHT22;3460;52.028;8.916;2024-03-06T08:29:07;6.20;99.90
6843;DHT22;3460;52.028;8.916;2024-03-06T08:31:34;6.20;99.90
6843;DHT22;3460;52.028;8.916;2024-03-06T08:34:00;6.30;99.90
6843;DHT22;3460;52.028;8.916;2024-03-06T08:36:27;6.30;99.90
6843;DHT22;3460;52.028;8.916;2024-03-06T08:38:55;6.40;99.90
6843;DHT22;3460;52.028;8.916;2024-03-06T08:41:22;6.40;99.90
6843;DHT22;3460;52.028;8.916;2024-03-06T08:43:49;6.50;99.90
6843;DHT22;3460;52.028;8.916;2024-03-06T08:46:16;6.60;99.90
6843;DHT22;3460;52.028;8.916;2024-03-06T08:48:42;6.60;99.90
6843;DHT22;3460;52.028;8.916;2024-03-06T08:51:09;6.50;99.90
6843;DHT22;3460;52.028;8.916;2024-03-06T08:53:36;6.60;99.90
6843;DHT22;3460;52.028;8.916;2024-03-06T08:56:06;6.60;99.90
6843;DHT22;3460;52.028;8.916;2024-03-06T08:58:33;6.60;99.90
6843;DHT22;3460;52.028;8.916;2024-03-06T09:01:00;6.60;99.90
6843;DHT22;3460;52.028;8.916;2024-03-06T09:03:26;6.60;99.90
6843;DHT22;3460;52.028;8.916;2024-03-06T09:05:53;6.70;99.90
6843;DHT22;3460;52.028;8.916;2024-03-06T09:08:20;6.80;99.90
6843;DHT22;3460;52.028;8.916;2024-03-06T09:10:47;6.90;99.90
6843;DHT22;3460;52.028;8.916;2024-03-06T09:13:15;6.90;99.90
6843;DHT22;3460;52.028;8.916;2024-03-06T09:15:42;6.80;99.90
6843;DHT22;3460;52.028;8.916;2024-03-06T09:18:08;6.80;99.90
6843;DHT22;3460;52.028;8.916;2024-03-06T09:20:35;6.80;99.90
6843;DHT22;3460;52.028;8.916;2024-03-06T09:23:02;6.80;99.90
6843;DHT22;3460;52.028;8.916;2024-03-06T09:25:29;6.80;99.90
6843;DHT22;3460;52.028;8.916;2024-03-06T09:27:56;6.70;99.90
6843;DHT22;3460;52.028;8.916;2024-03-06T09:30:26;6.80;99.90
6843;DHT22;3460;52.028;8.916;2024-03-06T09:32:54;6.80;99.90
6843;DHT22;3460;52.028;8.916;2024-03-06T09:35:21;6.80;99.90
6843;DHT22;3460;52.028;8.916;2024-03-06T09:37:48;6.80;99.90
6843;DHT22;3460;52.028;8.916;2024-03-06T09:40:20;6.90;99.90
6843;DHT22;3460;52.028;8.916;2024-03-06T09:42:48;7.00;99.90
6843;DHT22;3460;52.028;8.916;2024-03-06T09:45:15;7.00;99.90
6843;DHT22;3460;52.028;8.916;2024-03-06T09:47:44;7.00;99.90
6843;DHT22;3460;52.028;8.916;2024-03-06T09:50:16;7.00;99.90
6843;DHT22;3460;52.028;8.916;2024-03-06T09:52:46;7.00;99.90
6843;DHT22;3460;52.028;8.916;2024-03-06T09:55:16;7.00;99.90
6843;DHT22;3460;52.028;8.916;2024-03-06T09:57:43;7.20;99.90
6843;DHT22;3460;52.028;8.916;2024-03-06T10:00:10;7.20;99.90
6843;DHT22;3460;52.028;8.916;2024-03-06T10:02:41;7.20;99.90
6843;DHT22;3460;52.028;8.916;2024-03-06T10:05:22;7.20;99.90
6843;DHT22;3460;52.028;8.916;2024-03-06T10:07:50;7.30;99.90
6843;DHT22;3460;52.028;8.916;2024-03-06T10:10:18;7.30;99.90
6843;DHT22;3460;52.028;8.916;2024-03-06T10:12:45;7.40;99.90
6843;DHT22;3460;52.028;8.916;2024-03-06T10:15:13;7.30;99.90
6843;DHT22;3460;52.028;8.916;2024-03-06T10:17:40;7.40;99.90
6843;DHT22;3460;52.028;8.916;2024-03-06T10:20:17;7.50;99.90
6843;DHT22;3460;52.028;8.916;2024-03-06T10:22:48;7.40;99.90
6843;DHT22;3460;52.028;8.916;2024-03-06T10:25:15;7.40;99.90
6843;DHT22;3460;52.028;8.916;2024-03-06T10:27:44;7.30;99.90
6843;DHT22;3460;52.028;8.916;2024-03-06T10:30:11;7.30;99.90
6843;DHT22;3460;52.028;8.916;2024-03-06T10:32:39;7.40;99.90
6843;DHT22;3460;52.028;8.916;2024-03-06T10:35:07;7.40;99.90
6843;DHT22;3460;52.028;8.916;2024-03-06T10:37:34;7.50;99.90
6843;DHT22;3460;52.028;8.916;2024-03-06T10:40:04;7.50;99.90
6843;DHT22;3460;52.028;8.916;2024-03-06T10:42:38;7.50;99.90
6843;DHT22;3460;52.028;8.916;2024-03-06T10:45:08;7.50;99.90
6843;DHT22;3460;52.028;8.916;2024-03-06T10:47:38;7.60;99.90
6843;DHT22;3460;52.028;8.916;2024-03-06T10:50:07;7.60;99.90
6843;DHT22;3460;52.028;8.916;2024-03-06T10:52:36;7.70;99.90
6843;DHT22;3460;52.028;8.916;2024-03-06T10:55:06;7.70;99.90
6843;DHT22;3460;52.028;8.916;2024-03-06T10:57:36;7.60;99.90
6843;DHT22;3460;52.028;8.916;2024-03-06T11:00:03;7.60;99.90
6843;DHT22;3460;52.028;8.916;2024-03-06T11:02:32;7.70;99.90
6843;DHT22;3460;52.028;8.916;2024-03-06T11:05:02;7.70;99.90
6843;DHT22;3460;52.028;8.916;2024-03-06T11:07:30;7.70;99.90
6843;DHT22;3460;52.028;8.916;2024-03-06T11:09:58;7.80;99.90
6843;DHT22;3460;52.028;8.916;2024-03-06T11:12:37;7.80;99.90
6843;DHT22;3460;52.028;8.916;2024-03-06T11:15:14;7.90;99.90
6843;DHT22;3460;52.028;8.916;2024-03-06T11:17:41;7.70;99.90
6843;DHT22;3460;52.028;8.916;2024-03-06T11:20:18;7.80;99.90
6843;DHT22;3460;52.028;8.916;2024-03-06T11:23:04;7.90;99.90
6843;DHT22;3460;52.028;8.916;2024-03-06T11:25:57;7.90;99.90
6843;DHT22;3460;52.028;8.916;2024-03-06T11:28:26;7.90;99.90
6843;DHT22;3460;52.028;8.916;2024-03-06T11:30:55;8.00;94.70
6843;DHT22;3460;52.028;8.916;2024-03-06T11:33:23;8.00;99.90
6843;DHT22;3460;52.028;8.916;2024-03-06T11:36:15;8.00;99.90
6843;DHT22;3460;52.028;8.916;2024-03-06T11:38:46;8.00;99.90
6843;DHT22;3460;52.028;8.916;2024-03-06T11:41:13;8.10;99.90
6843;DHT22;3460;52.028;8.916;2024-03-06T11:43:44;8.10;37.30
6843;DHT22;3460;52.028;8.916;2024-03-06T11:46:11;7.90;80.60
6843;DHT22;3460;52.028;8.916;2024-03-06T11:48:38;7.90;99.90
6843;DHT22;3460;52.028;8.916;2024-03-06T11:51:06;7.90;83.40
6843;DHT22;3460;52.028;8.916;2024-03-06T11:53:33;7.90;98.20
6843;DHT22;3460;52.028;8.916;2024-03-06T11:56:00;8.00;99.90
6843;DHT22;3460;52.028;8.916;2024-03-06T11:58:27;8.10;42.80
6843;DHT22;3460;52.028;8.916;2024-03-06T12:00:55;8.00;10.90
6843;DHT22;3460;52.028;8.916;2024-03-06T12:03:22;8.10;58.90
6843;DHT22;3460;52.028;8.916;2024-03-06T12:05:50;8.20;99.90
6843;DHT22;3460;52.028;8.916;2024-03-06T12:08:18;8.30;58.00
6843;DHT22;3460;52.028;8.916;2024-03-06T12:10:46;8.40;1.00
6843;DHT22;3460;52.028;8.916;2024-03-06T12:13:13;8.40;1.00
6843;DHT22;3460;52.028;8.916;2024-03-06T12:15:42;8.40;1.00
6843;DHT22;3460;52.028;8.916;2024-03-06T12:18:11;8.40;1.00
6843;DHT22;3460;52.028;8.916;2024-03-06T12:20:41;8.40;1.00
6843;DHT22;3460;52.028;8.916;2024-03-06T12:23:19;8.50;1.00
6843;DHT22;3460;52.028;8.916;2024-03-06T12:25:47;8.60;1.00
6843;DHT22;3460;52.028;8.916;2024-03-06T12:28:14;8.50;1.00
6843;DHT22;3460;52.028;8.916;2024-03-06T12:30:41;8.70;1.00
6843;DHT22;3460;52.028;8.916;2024-03-06T12:33:16;8.60;1.00
6843;DHT22;3460;52.028;8.916;2024-03-06T12:35:43;8.60;1.00
6843;DHT22;3460;52.028;8.916;2024-03-06T12:38:13;8.80;1.00
6843;DHT22;3460;52.028;8.916;2024-03-06T12:40:40;8.80;1.00
6843;DHT22;3460;52.028;8.916;2024-03-06T12:43:07;8.90;99.90
6843;DHT22;3460;52.028;8.916;2024-03-06T12:45:35;8.80;99.90
6843;DHT22;3460;52.028;8.916;2024-03-06T12:48:03;8.70;99.90
6843;DHT22;3460;52.028;8.916;2024-03-06T12:50:32;8.80;99.90
6843;DHT22;3460;52.028;8.916;2024-03-06T12:52:59;8.90;99.90
6843;DHT22;3460;52.028;8.916;2024-03-06T12:55:26;8.90;99.90
6843;DHT22;3460;52.028;8.916;2024-03-06T12:57:53;8.90;99.90
6843;DHT22;3460;52.028;8.916;2024-03-06T13:00:20;9.00;99.90
6843;DHT22;3460;52.028;8.916;2024-03-06T13:02:46;9.00;99.90
6843;DHT22;3460;52.028;8.916;2024-03-06T13:05:13;9.00;88.30
6843;DHT22;3460;52.028;8.916;2024-03-06T13:07:42;8.90;99.90
6843;DHT22;3460;52.028;8.916;2024-03-06T13:10:09;8.90;99.90
6843;DHT22;3460;52.028;8.916;2024-03-06T13:12:37;8.90;99.90
6843;DHT22;3460;52.028;8.916;2024-03-06T13:15:05;9.00;99.90
6843;DHT22;3460;52.028;8.916;2024-03-06T13:17:33;9.00;99.90
6843;DHT22;3460;52.028;8.916;2024-03-06T13:20:00;9.10;99.90
6843;DHT22;3460;52.028;8.916;2024-03-06T13:22:27;9.10;1.00
6843;DHT22;3460;52.028;8.916;2024-03-06T13:24:55;9.30;1.00
6843;DHT22;3460;52.028;8.916;2024-03-06T13:27:22;9.30;99.90
6843;DHT22;3460;52.028;8.916;2024-03-06T13:29:49;9.20;99.90
6843;DHT22;3460;52.028;8.916;2024-03-06T13:32:16;9.30;1.00
6843;DHT22;3460;52.028;8.916;2024-03-06T13:34:43;9.30;99.90
6843;DHT22;3460;52.028;8.916;2024-03-06T13:37:10;9.30;1.00
6843;DHT22;3460;52.028;8.916;2024-03-06T13:39:37;9.40;99.90
6843;DHT22;3460;52.028;8.916;2024-03-06T13:42:06;9.40;99.90
6843;DHT22;3460;52.028;8.916;2024-03-06T13:44:33;9.50;99.90
6843;DHT22;3460;52.028;8.916;2024-03-06T13:47:00;9.60;99.90
6843;DHT22;3460;52.028;8.916;2024-03-06T13:49:38;9.50;1.00
6843;DHT22;3460;52.028;8.916;2024-03-06T13:52:05;9.40;1.00
6843;DHT22;3460;52.028;8.916;2024-03-06T13:54:32;9.40;69.50
6843;DHT22;3460;52.028;8.916;2024-03-06T13:56:59;9.50;43.10
6843;DHT22;3460;52.028;8.916;2024-03-06T13:59:30;9.50;1.00
6843;DHT22;3460;52.028;8.916;2024-03-06T14:01:57;9.60;99.90
6843;DHT22;3460;52.028;8.916;2024-03-06T14:04:24;9.60;1.00
6843;DHT22;3460;52.028;8.916;2024-03-06T14:06:51;9.50;99.90
6843;DHT22;3460;52.028;8.916;2024-03-06T14:09:18;9.60;99.90
6843;DHT22;3460;52.028;8.916;2024-03-06T14:11:45;9.70;99.90
6843;DHT22;3460;52.028;8.916;2024-03-06T14:14:11;9.70;1.00
6843;DHT22;3460;52.028;8.916;2024-03-06T14:16:40;9.70;99.90
6843;DHT22;3460;52.028;8.916;2024-03-06T14:19:08;9.60;99.90
6843;DHT22;3460;52.028;8.916;2024-03-06T14:21:35;9.60;99.90
6843;DHT22;3460;52.028;8.916;2024-03-06T14:24:02;9.70;1.00
6843;DHT22;3460;52.028;8.916;2024-03-06T14:26:29;9.60;99.90
6843;DHT22;3460;52.028;8.916;2024-03-06T14:28:56;9.60;99.90
6843;DHT22;3460;52.028;8.916;2024-03-06T14:31:24;9.50;99.90
6843;DHT22;3460;52.028;8.916;2024-03-06T14:33:52;9.50;99.90
6843;DHT22;3460;52.028;8.916;2024-03-06T14:36:19;9.60;99.90
6843;DHT22;3460;52.028;8.916;2024-03-06T14:38:47;9.60;1.00
6843;DHT22;3460;52.028;8.916;2024-03-06T14:41:14;9.50;99.90
6843;DHT22;3460;52.028;8.916;2024-03-06T14:43:41;9.50;1.00
6843;DHT22;3460;52.028;8.916;2024-03-06T14:46:08;9.50;1.00
6843;DHT22;3460;52.028;8.916;2024-03-06T14:48:35;9.40;99.90
6843;DHT22;3460;52.028;8.916;2024-03-06T14:51:03;9.40;1.00
6843;DHT22;3460;52.028;8.916;2024-03-06T14:53:30;9.50;99.90
6843;DHT22;3460;52.028;8.916;2024-03-06T14:55:57;9.50;99.90
6843;DHT22;3460;52.028;8.916;2024-03-06T14:58:24;9.40;1.00
6843;DHT22;3460;52.028;8.916;2024-03-06T15:00:51;9.40;99.90
6843;DHT22;3460;52.028;8.916;2024-03-06T15:03:17;9.40;34.80
6843;DHT22;3460;52.028;8.916;2024-03-06T15:05:45;9.40;99.90
6843;DHT22;3460;52.028;8.916;2024-03-06T15:08:13;9.40;53.40
6843;DHT22;3460;52.028;8.916;2024-03-06T15:10:40;9.40;99.90
6843;DHT22;3460;52.028;8.916;2024-03-06T15:13:07;9.40;62.30
6843;DHT22;3460;52.028;8.916;2024-03-06T15:15:35;9.40;1.00
6843;DHT22;3460;52.028;8.916;2024-03-06T15:18:03;9.50;1.00
6843;DHT22;3460;52.028;8.916;2024-03-06T15:20:30;9.50;1.00
6843;DHT22;3460;52.028;8.916;2024-03-06T15:22:58;9.40;99.90
6843;DHT22;3460;52.028;8.916;2024-03-06T15:25:26;9.40;1.00
6843;DHT22;3460;52.028;8.916;2024-03-06T15:27:53;9.30;1.00
6843;DHT22;3460;52.028;8.916;2024-03-06T15:30:20;9.30;1.00
6843;DHT22;3460;52.028;8.916;2024-03-06T15:32:47;9.30;1.00
6843;DHT22;3460;52.028;8.916;2024-03-06T15:35:14;9.20;99.90
6843;DHT22;3460;52.028;8.916;2024-03-06T15:37:41;9.20;1.00
6843;DHT22;3460;52.028;8.916;2024-03-06T15:40:09;9.30;1.00
6843;DHT22;3460;52.028;8.916;2024-03-06T15:42:37;9.20;98.30
6843;DHT22;3460;52.028;8.916;2024-03-06T15:45:05;9.20;1.00
6843;DHT22;3460;52.028;8.916;2024-03-06T15:47:32;9.20;1.00
6843;DHT22;3460;52.028;8.916;2024-03-06T15:49:59;9.10;99.90
6843;DHT22;3460;52.028;8.916;2024-03-06T15:52:26;9.10;99.90
6843;DHT22;3460;52.028;8.916;2024-03-06T15:54:53;9.00;1.00
6843;DHT22;3460;52.028;8.916;2024-03-06T15:57:20;9.10;1.00
6843;DHT22;3460;52.028;8.916;2024-03-06T15:59:48;9.00;1.00
6843;DHT22;3460;52.028;8.916;2024-03-06T16:02:15;9.00;99.90
6843;DHT22;3460;52.028;8.916;2024-03-06T16:04:42;8.90;99.90
6843;DHT22;3460;52.028;8.916;2024-03-06T16:07:08;8.70;99.90
6843;DHT22;3460;52.028;8.916;2024-03-06T16:09:37;8.70;99.90
6843;DHT22;3460;52.028;8.916;2024-03-06T16:12:04;8.70;99.90
6843;DHT22;3460;52.028;8.916;2024-03-06T16:14:31;8.70;1.00
6843;DHT22;3460;52.028;8.916;2024-03-06T16:16:59;8.70;38.20
6843;DHT22;3460;52.028;8.916;2024-03-06T16:19:32;8.60;27.10
6843;DHT22;3460;52.028;8.916;2024-03-06T16:21:59;8.60;1.00